Time;durP1;ratioP1;P1;durP2;ratioP2;P2;SDS_P1;SDS_P2;PMS_P1;PMS_P2;Temp;Humidity;BMP_temperature;BMP_pressure;BME280_temperature;BME280_humidity;BME280_pressure;Samples;Min_cycle;Max_cycle;Signal;HPM_P1;HPM_P2
2022/05/23 00:00:44;;;;;;;;;;;;;;;-145.66;100.00;59599.19;10339333;28;20381;-69
2022/05/23 00:05:46;;;;;;;;;;;;;;;-145.66;100.00;59599.19;10340009;28;19929;-69
2022/05/23 00:10:49;;;;;;;;;;;;;;;-145.66;100.00;59599.19;10338383;28;19922;-69
2022/05/23 00:15:51;;;;;;;;;;;;;;;-145.66;100.00;59599.19;10339503;28;19922;-69
2022/05/23 00:20:53;;;;;;;;;;;;;;;-145.66;100.00;59599.19;10338572;28;19921;-69
2022/05/23 00:25:55;;;;;;;;;;;;;;;-145.66;100.00;59599.19;10338644;28;19926;-69
2022/05/23 00:30:57;;;;;;;;;;;;;;;-145.66;100.00;59599.19;10338296;28;20377;-69
2022/05/23 00:36:00;;;;;;;;;;;;;;;-145.66;100.00;59599.19;10338870;28;19953;-69
2022/05/23 00:46:25;;;;;;;;;;;;;;;-145.66;100.00;59599.19;10337462;28;19941;-69
2022/05/23 00:51:27;;;;;;;;;;;;;;;-145.66;100.00;59599.19;10338212;28;19921;-69
2022/05/23 00:56:32;;;;;;;;;;;;;;;-145.66;100.00;59599.19;10353260;28;19952;-69
2022/05/23 01:01:35;;;;;;;;;;;;;;;-145.66;100.00;59599.19;10336966;28;19921;-69
2022/05/23 01:06:37;;;;;;;;;;;;;;;-145.66;100.00;59599.19;10335509;28;19944;-69
2022/05/23 01:11:39;;;;;;;;;;;;;;;-145.66;100.00;59599.19;10337324;28;19921;-69
2022/05/23 01:16:41;;;;;;;;;;;;;;;-145.66;100.00;59599.19;10337285;28;19922;-69
2022/05/23 01:21:43;;;;;;;;;;;;;;;-145.66;100.00;59599.19;10336687;28;19928;-69
2022/05/23 01:26:47;;;;;;;;;;;;;;;-145.66;100.00;59599.19;10336340;28;20396;-69
2022/05/23 01:31:49;;;;;;;;;;;;;;;-145.66;100.00;59599.19;10335427;28;19921;-69
2022/05/23 01:36:51;;;;;;;;;;;;;;;-145.66;100.00;59599.19;10335856;28;19922;-69
2022/05/23 01:41:53;;;;;;;;;;;;;;;-145.66;100.00;59599.19;10335261;28;20281;-69
2022/05/23 01:46:55;;;;;;;;;;;;;;;-145.66;100.00;59599.19;10336562;28;19925;-69
2022/05/23 01:51:58;;;;;;;;;;;;;;;-145.66;100.00;59599.19;10335826;28;20008;-69
2022/05/23 01:57:00;;;;;;;;;;;;;;;-145.66;100.00;59599.19;10335178;28;19928;-69
2022/05/23 02:02:03;;;;;;;;;;;;;;;-145.66;100.00;59599.19;10350575;28;19922;-69
2022/05/23 02:07:05;;;;;;;;;;;;;;;-145.66;100.00;59599.19;10335409;28;19925;-69
2022/05/23 02:12:08;;;;;;;;;;;;;;;-145.66;100.00;59599.19;10333337;28;19948;-69
2022/05/23 02:17:11;;;;;;;;;;;;;;;-145.66;100.00;59599.19;10334002;28;20369;-69
2022/05/23 02:22:13;;;;;;;;;;;;;;;-145.66;100.00;59599.19;10334244;28;19922;-69
2022/05/23 02:27:16;;;;;;;;;;;;;;;-145.66;100.00;59599.19;10334964;28;19925;-69
2022/05/23 02:32:18;;;;;;;;;;;;;;;-145.66;100.00;59599.19;10334293;28;19928;-69
2022/05/23 02:37:20;;;;;;;;;;;;;;;-145.66;100.00;59599.19;10334905;28;19937;-69
2022/05/23 02:42:22;;;;;;;;;;;;;;;-145.66;100.00;59599.19;10333880;28;19929;-69
2022/05/23 02:47:24;;;;;;;;;;;;;;;-145.66;100.00;59599.19;10334606;28;19929;-69
2022/05/23 02:52:27;;;;;;;;;;;;;;;-145.66;100.00;59599.19;10334268;28;19922;-69
2022/05/23 02:57:29;;;;;;;;;;;;;;;-145.66;100.00;59599.19;10333698;28;19928;-69
2022/05/23 03:07:52;;;;;;;;;;;;;;;-145.66;100.00;59599.19;10346990;28;19961;-69
2022/05/23 03:12:54;;;;;;;;;;;;;;;-145.66;100.00;59599.19;10333895;28;19921;-69
2022/05/23 03:17:56;;;;;;;;;;;;;;;-145.66;100.00;59599.19;10333929;28;19933;-69
2022/05/23 03:28:20;;;;;;;;;;;;;;;-145.66;100.00;59599.19;10333260;28;20288;-69
2022/05/23 03:33:22;;;;;;;;;;;;;;;-145.66;100.00;59599.19;10339772;28;19928;-69
2022/05/23 03:38:25;;;;;;;;;;;;;;;-145.66;100.00;59599.19;10340021;28;19929;-69
2022/05/23 03:43:27;;;;;;;;;;;;;;;-145.66;100.00;59599.19;10340340;28;19922;-69
2022/05/23 03:48:30;;;;;;;;;;;;;;;-145.66;100.00;59599.19;10340121;28;20344;-69
2022/05/23 03:53:32;;;;;;;;;;;;;;;-145.66;100.00;59599.19;10340435;28;19922;-69
2022/05/23 03:58:34;;;;;;;;;;;;;;;-145.66;100.00;59599.19;10338633;28;20276;-69
2022/05/23 04:03:42;;;;;;;;;;;;;;;-145.66;100.00;59599.19;10326022;28;19976;-69
2022/05/23 04:08:44;;;;;;;;;;;;;;;-145.66;100.00;59599.19;10339329;28;20439;-69
2022/05/23 04:13:47;;;;;;;;;;;;;;;-145.66;100.00;59599.19;10338954;28;20380;-69
2022/05/23 04:18:49;;;;;;;;;;;;;;;-145.66;100.00;59599.19;10339072;28;20284;-69
2022/05/23 04:23:55;;;;;;;;;;;;;;;-145.66;100.00;59599.19;10338731;28;19922;-69
2022/05/23 04:28:57;;;;;;;;;;;;;;;-145.66;100.00;59599.19;10339376;28;19922;-68
2022/05/23 04:39:20;;;;;;;;;;;;;;;-145.66;100.00;59599.19;10351726;28;19921;-68
2022/05/23 04:44:22;;;;;;;;;;;;;;;-145.66;100.00;59599.19;10337621;28;19929;-69
2022/05/23 04:49:44;;;;;;;;;;;;;;;-145.66;100.00;59599.19;10337936;28;19921;-69
2022/05/23 04:54:47;;;;;;;;;;;;;;;-145.66;100.00;59599.19;10337481;28;20266;-69
2022/05/23 04:59:49;;;;;;;;;;;;;;;-145.66;100.00;59599.19;10338110;28;20021;-69
2022/05/23 05:04:51;;;;;;;;;;;;;;;-145.66;100.00;59599.19;10337106;28;19929;-69
2022/05/23 05:09:54;;;;;;;;;;;;;;;-145.66;100.00;59599.19;10337983;28;19933;-67
2022/05/23 05:14:56;;;;;;;;;;;;;;;-145.66;100.00;59599.19;10336731;28;19945;-67
2022/05/23 05:19:58;;;;;;;;;;;;;;;-145.66;100.00;59599.19;10336202;28;19922;-67
2022/05/23 05:25:00;;;;;;;;;;;;;;;-145.66;100.00;59599.19;10336858;28;19922;-66
2022/05/23 05:30:03;;;;;;;;;;;;;;;-145.66;100.00;59599.19;10337037;28;19922;-67
2022/05/23 05:35:09;;;;;;;;;;;;;;;-145.66;100.00;59599.19;10335829;28;19928;-67
2022/05/23 05:40:12;;;;;;;;;;;;;;;-145.66;100.00;59599.19;10335400;28;19928;-67
2022/05/23 05:45:15;;;;;;;;;;;;;;;-145.66;100.00;59599.19;10334262;28;19928;-67
2022/05/23 05:50:19;;;;;;;;;;;;;;;-145.66;100.00;59599.19;10350729;28;19921;-67
2022/05/23 05:55:22;;;;;;;;;;;;;;;-145.66;100.00;59599.19;10334395;28;19945;-67
2022/05/23 06:00:24;;;;;;;;;;;;;;;-145.66;100.00;59599.19;10335586;28;19922;-67
2022/05/23 06:05:26;;;;;;;;;;;;;;;-145.66;100.00;59599.19;10350882;28;19925;-67
2022/05/23 06:15:49;;;;;;;;;;;;;;;-145.66;100.00;59599.19;10334856;28;19944;-67
2022/05/23 06:20:52;;;;;;;;;;;;;;;-145.66;100.00;59599.19;10334795;28;19922;-67
2022/05/23 06:25:54;;;;;;;;;;;;;;;-145.66;100.00;59599.19;10349877;28;19926;-67
2022/05/23 06:30:57;;;;;;;;;;;;;;;-145.66;100.00;59599.19;10334653;28;19926;-67
2022/05/23 06:36:00;;;;;;;;;;;;;;;-145.66;100.00;59599.19;10333586;28;19921;-67
2022/05/23 06:41:03;;;;;;;;;;;;;;;-145.66;100.00;59599.19;10334224;28;19922;-67
2022/05/23 06:46:05;;;;;;;;;;;;;;;-145.66;100.00;59599.19;10333459;28;19922;-67
2022/05/23 06:51:08;;;;;;;;;;;;;;;-145.66;100.00;59599.19;10333600;28;20274;-67
2022/05/23 06:56:10;;;;;;;;;;;;;;;-145.66;100.00;59599.19;10334413;28;19921;-67
2022/05/23 07:01:12;;;;;;;;;;;;;;;-145.66;100.00;59599.19;10348540;28;20372;-67
2022/05/23 07:16:56;;;;;;;;;;;;;;;-145.66;100.00;59599.19;10341654;28;19975;-67
2022/05/23 07:22:00;;;;;;;;;;;;;;;-145.66;100.00;59599.19;10341295;28;19925;-67
2022/05/23 07:27:03;;;;;;;;;;;;;;;-145.66;100.00;59599.19;10340120;28;19922;-66
2022/05/23 07:32:06;;;;;;;;;;;;;;;-145.66;100.00;59599.19;10340733;28;20372;-65
2022/05/23 07:37:08;;;;;;;;;;;;;;;-145.66;100.00;59599.19;10354816;28;19926;-65
2022/05/23 07:42:11;;;;;;;;;;;;;;;-145.66;100.00;59599.19;10339762;28;19921;-65
2022/05/23 07:47:13;;;;;;;;;;;;;;;-145.66;100.00;59599.19;10341073;28;19922;-65
2022/05/23 07:52:15;;;;;;;;;;;;;;;-145.66;100.00;59599.19;10341497;28;19928;-65
2022/05/23 08:02:38;;;;;;;;;;;;;;;-145.66;100.00;59599.19;10339949;28;19929;-65
2022/05/23 08:07:40;;;;;;;;;;;;;;;-145.66;100.00;59599.19;10338690;28;19956;-66
2022/05/23 08:12:45;;;;;;;;;;;;;;;-145.66;100.00;59599.19;10338876;28;19922;-66
2022/05/23 08:17:50;;;;;;;;;;;;;;;-145.66;100.00;59599.19;10353216;28;19921;-65
2022/05/23 08:22:59;;;;;;;;;;;;;;;-145.66;100.00;59599.19;10339024;28;19926;-66
2022/05/23 08:28:01;;;;;;;;;;;;;;;-145.66;100.00;59599.19;10339496;28;19928;-66
2022/05/23 08:33:03;;;;;;;;;;;;;;;-145.66;100.00;59599.19;10339142;28;19928;-66
2022/05/23 08:38:05;;;;;;;;;;;;;;;-145.66;100.00;59599.19;10338984;28;19922;-66
2022/05/23 08:43:08;;;;;;;;;;;;;;;-145.66;100.00;59599.19;10353265;28;20376;-66
2022/05/23 08:48:17;;;;;;;;;;;;;;;-145.66;100.00;59599.19;10353159;28;19922;-66
2022/05/23 08:53:26;;;;;;;;;;;;;;;-145.66;100.00;59599.19;10353368;28;19929;-66
2022/05/23 08:58:54;;;;;;;;;;;;;;;-145.66;100.00;59599.19;10405189;23;19924;-68
2022/05/23 09:04:11;;;;;;;;;;;;;;;-145.66;100.00;59599.19;10417137;28;19921;-68
2022/05/23 09:09:14;;;;;;;;;;;;;;;-145.66;100.00;59599.19;10417581;28;20288;-68
2022/05/23 09:14:17;;;;;;;;;;;;;;;-145.66;100.00;59599.19;10417353;28;19921;-69
2022/05/23 09:19:38;;;;;;;;;;;;;;;-145.66;100.00;59599.19;10418908;28;19921;-68
2022/05/23 09:24:55;;;;;;;;;;;;;;;-145.66;100.00;59599.19;10417564;28;19921;-68
2022/05/23 09:29:58;;;;;;;;;;;;;;;-145.66;100.00;59599.19;10417552;28;19925;-68
2022/05/23 09:35:01;;;;;;;;;;;;;;;-145.66;100.00;59599.19;10417182;28;19921;-68
2022/05/23 09:40:04;;;;;;;;;;;;;;;-145.66;100.00;59599.19;10416290;28;19928;-68
2022/05/23 09:50:39;;;;;;;;;;;;;;;-145.66;100.00;59599.19;10416162;28;20376;-68
2022/05/23 09:55:43;;;;;;;;;;;;;;;-145.66;100.00;59599.19;10416294;28;19921;-68
2022/05/23 10:00:56;;;;;;;;;;;;;;;-145.66;100.00;59599.19;10416233;28;19928;-69
2022/05/23 10:06:03;;;;;;;;;;;;;;;-145.66;100.00;59599.19;10415544;28;19971;-69
2022/05/23 10:11:06;;;;;;;;;;;;;;;-145.66;100.00;59599.19;10416999;28;20012;-70
2022/05/23 10:16:09;;;;;;;;;;;;;;;-145.66;100.00;59599.19;10416835;28;19931;-69
2022/05/23 10:21:26;;;;;;;;;;;;;;;-145.66;100.00;59599.19;10414821;28;19928;-69
2022/05/23 10:26:30;;;;;;;;;;;;;;;-145.66;100.00;59599.19;10415410;28;19925;-68
2022/05/23 10:31:33;;;;;;;;;;;;;;;-145.66;100.00;59599.19;10415122;28;19921;-68
2022/05/23 10:36:35;;;;;;;;;;;;;;;-145.66;100.00;59599.19;10414708;28;20287;-68
2022/05/23 10:47:26;;;;;;;;;;;;;;;-145.66;100.00;59599.19;10415226;28;20360;-69
2022/05/23 10:52:37;;;;;;;;;;;;;;;-145.66;100.00;59599.19;10415849;28;20096;-69
2022/05/23 10:57:40;;;;;;;;;;;;;;;-145.66;100.00;59599.19;10415162;28;19932;-68
2022/05/23 11:02:42;;;;;;;;;;;;;;;-145.66;100.00;59599.19;10415754;28;19928;-69
2022/05/23 11:07:47;;;;;;;;;;;;;;;-145.66;100.00;59599.19;10415664;28;19928;-68
2022/05/23 11:12:56;;;;;;;;;;;;;;;-145.66;100.00;59599.19;10414282;28;19921;-68
2022/05/23 11:17:58;;;;;;;;;;;;;;;-145.66;100.00;59599.19;10413783;28;20366;-69
2022/05/23 11:23:20;;;;;;;;;;;;;;;-145.66;100.00;59599.19;10414199;28;19921;-70
2022/05/23 11:33:47;;;;;;;;;;;;;;;-145.66;100.00;59599.19;10412299;28;19928;-70
2022/05/23 11:38:50;;;;;;;;;;;;;;;-145.66;100.00;59599.19;10411216;28;19925;-70
2022/05/23 11:43:53;;;;;;;;;;;;;;;-145.66;100.00;59599.19;10365828;28;20219;-70
2022/05/23 11:49:00;;;;;;;;;;;;;;;-145.66;100.00;59599.19;10371976;28;19921;-69
2022/05/23 11:54:08;;;;;;;;;;;;;;;-145.66;100.00;59599.19;10378249;28;20412;-70
2022/05/23 11:59:11;;;;;;;;;;;;;;;-145.66;100.00;59599.19;10379097;28;20275;-70
2022/05/23 12:04:15;;;;;;;;;;;;;;;-145.66;100.00;59599.19;10379628;28;19928;-70
2022/05/23 12:09:17;;;;;;;;;;;;;;;-145.66;100.00;59599.19;10379638;28;19928;-71
2022/05/23 12:14:20;;;;;;;;;;;;;;;-145.66;100.00;59599.19;10380513;28;19929;-70
2022/05/23 12:19:28;;;;;;;;;;;;;;;-145.66;100.00;59599.19;10379407;28;19944;-70
2022/05/23 12:24:31;;;;;;;;;;;;;;;-145.66;100.00;59599.19;10379062;28;19932;-70
2022/05/23 12:30:12;;;;;;;;;;;;;;;-145.66;100.00;59599.19;10379807;28;19921;-69
2022/05/23 12:35:15;;;;;;;;;;;;;;;-145.66;100.00;59599.19;10379811;28;19928;-70
2022/05/23 12:40:17;;;;;;;;;;;;;;;-145.66;100.00;59599.19;10377782;28;19921;-70
2022/05/23 12:45:31;;;;;;;;;;;;;;;-145.66;100.00;59599.19;10375982;28;19921;-70
2022/05/23 12:50:44;;;;;;;;;;;;;;;-145.66;100.00;59599.19;10378251;28;19937;-70
2022/05/23 12:56:12;;;;;;;;;;;;;;;-145.66;100.00;59599.19;10376863;28;19921;-69
2022/05/23 13:01:17;;;;;;;;;;;;;;;-145.66;100.00;59599.19;10373067;28;19928;-70
2022/05/23 13:06:26;;;;;;;;;;;;;;;-145.66;100.00;59599.19;10377248;28;19928;-70
2022/05/23 13:11:52;;;;;;;;;;;;;;;-145.66;100.00;59599.19;10377828;28;20253;-70
2022/05/23 13:16:57;;;;;;;;;;;;;;;-145.66;100.00;59599.19;10377052;28;19921;-70
2022/05/23 13:22:06;;;;;;;;;;;;;;;-145.66;100.00;59599.19;10377670;28;19925;-70
2022/05/23 13:27:09;;;;;;;;;;;;;;;-145.66;100.00;59599.19;10377837;28;19929;-70
2022/05/23 13:32:12;;;;;;;;;;;;;;;-145.66;100.00;59599.19;10376471;28;19928;-70
2022/05/23 13:37:27;;;;;;;;;;;;;;;-145.66;100.00;59599.19;10376270;28;19929;-70
2022/05/23 13:42:30;;;;;;;;;;;;;;;-145.66;100.00;59599.19;10377215;28;19936;-70
2022/05/23 13:47:32;;;;;;;;;;;;;;;-145.66;100.00;59599.19;10375853;28;19929;-70
2022/05/23 13:52:36;;;;;;;;;;;;;;;-145.66;100.00;59599.19;10376541;28;19922;-69
2022/05/23 13:57:40;;;;;;;;;;;;;;;-145.66;100.00;59599.19;10373957;28;19928;-69
2022/05/23 14:02:46;;;;;;;;;;;;;;;-145.66;100.00;59599.19;10359483;28;19928;-70
2022/05/23 14:07:48;;;;;;;;;;;;;;;-145.66;100.00;59599.19;10414885;28;19927;-70
2022/05/23 14:12:50;;;;;;;;;;;;;;;-145.66;100.00;59599.19;10415212;28;19931;-70
2022/05/23 14:17:52;;;;;;;;;;;;;;;-145.66;100.00;59599.19;10415983;28;20287;-70
2022/05/23 14:23:10;;;;;;;;;;;;;;;-145.66;100.00;59599.19;10379057;28;19929;-70
2022/05/23 14:28:12;;;;;;;;;;;;;;;-145.66;100.00;59599.19;10375092;28;20383;-70
2022/05/23 14:33:23;;;;;;;;;;;;;;;-145.66;100.00;59599.19;10376089;28;19921;-70
2022/05/23 14:38:26;;;;;;;;;;;;;;;-145.66;100.00;59599.19;10375406;28;19927;-69
2022/05/23 14:43:30;;;;;;;;;;;;;;;-145.66;100.00;59599.19;10375294;28;19928;-70
2022/05/23 14:48:33;;;;;;;;;;;;;;;-145.66;100.00;59599.19;10373836;28;19921;-70
2022/05/23 15:04:39;;;;;;;;;;;;;;;-145.66;100.00;59599.19;10384603;28;19925;-68
2022/05/23 15:09:42;;;;;;;;;;;;;;;-145.66;100.00;59599.19;10406609;28;20360;-69
2022/05/23 15:14:44;;;;;;;;;;;;;;;-145.66;100.00;59599.19;10407137;28;19956;-70
2022/05/23 15:19:47;;;;;;;;;;;;;;;-145.66;100.00;59599.19;10408409;28;20023;-70
2022/05/23 15:24:49;;;;;;;;;;;;;;;-145.66;100.00;59599.19;10406675;28;19936;-70
2022/05/23 15:29:52;;;;;;;;;;;;;;;-145.66;100.00;59599.19;10416339;28;19933;-70
2022/05/23 15:34:54;;;;;;;;;;;;;;;-145.66;100.00;59599.19;10415850;28;19929;-69
2022/05/23 15:39:57;;;;;;;;;;;;;;;-145.66;100.00;59599.19;10372191;28;19932;-69
2022/05/23 15:45:07;;;;;;;;;;;;;;;-145.66;100.00;59599.19;10363177;28;20416;-69
2022/05/23 15:50:10;;;;;;;;;;;;;;;-145.66;100.00;59599.19;10372660;28;20300;-72
2022/05/23 15:55:13;;;;;;;;;;;;;;;-145.66;100.00;59599.19;10373852;28;19925;-72
2022/05/23 16:00:16;;;;;;;;;;;;;;;-145.66;100.00;59599.19;10368551;28;19925;-72
2022/05/23 16:05:18;;;;;;;;;;;;;;;-145.66;100.00;59599.19;10365992;28;20002;-72
2022/05/23 16:10:20;;;;;;;;;;;;;;;-145.66;100.00;59599.19;10371770;28;20284;-72
2022/05/23 16:15:23;;;;;;;;;;;;;;;-145.66;100.00;59599.19;10372964;28;20373;-72
2022/05/23 16:20:26;;;;;;;;;;;;;;;-145.66;100.00;59599.19;10373235;28;19925;-72
2022/05/23 16:25:28;;;;;;;;;;;;;;;-145.66;100.00;59599.19;10371683;28;19932;-73
2022/05/23 16:30:31;;;;;;;;;;;;;;;-145.66;100.00;59599.19;10373671;28;19937;-72
2022/05/23 16:40:54;;;;;;;;;;;;;;;-145.66;100.00;59599.19;10372654;28;19925;-69
2022/05/23 16:45:57;;;;;;;;;;;;;;;-145.66;100.00;59599.19;10372817;28;19932;-69
2022/05/23 16:51:00;;;;;;;;;;;;;;;-145.66;100.00;59599.19;10370393;28;19925;-69
2022/05/23 16:56:03;;;;;;;;;;;;;;;-145.66;100.00;59599.19;10370146;28;19925;-68
2022/05/23 17:01:05;;;;;;;;;;;;;;;-145.66;100.00;59599.19;10371611;28;19925;-68
2022/05/23 17:06:08;;;;;;;;;;;;;;;-145.66;100.00;59599.19;10370962;28;19922;-68
2022/05/23 17:11:10;;;;;;;;;;;;;;;-145.66;100.00;59599.19;10366883;28;19936;-68
2022/05/23 17:16:34;;;;;;;;;;;;;;;-145.66;100.00;59599.19;10377628;28;20340;-68
2022/05/23 17:21:37;;;;;;;;;;;;;;;-145.66;100.00;59599.19;10378053;28;19993;-69
2022/05/23 17:26:39;;;;;;;;;;;;;;;-145.66;100.00;59599.19;10376930;28;19921;-69
2022/05/23 17:31:41;;;;;;;;;;;;;;;-145.66;100.00;59599.19;10377081;28;20000;-68
2022/05/23 17:36:44;;;;;;;;;;;;;;;-145.66;100.00;59599.19;10377495;28;19921;-68
2022/05/23 17:41:47;;;;;;;;;;;;;;;-145.66;100.00;59599.19;10376951;28;19921;-68
2022/05/23 17:46:49;;;;;;;;;;;;;;;-145.66;100.00;59599.19;10375539;28;19928;-67
2022/05/23 17:51:51;;;;;;;;;;;;;;;-145.66;100.00;59599.19;10374338;28;20360;-68
2022/05/23 17:56:55;;;;;;;;;;;;;;;-145.66;100.00;59599.19;10376003;28;20391;-67
2022/05/23 18:01:57;;;;;;;;;;;;;;;-145.66;100.00;59599.19;10375939;28;20274;-68
2022/05/23 18:07:00;;;;;;;;;;;;;;;-145.66;100.00;59599.19;10375856;28;20273;-67
2022/05/23 18:12:02;;;;;;;;;;;;;;;-145.66;100.00;59599.19;10375623;28;20379;-67
2022/05/23 18:22:25;;;;;;;;;;;;;;;-145.66;100.00;59599.19;10375378;28;19944;-67
2022/05/23 18:27:27;;;;;;;;;;;;;;;-145.66;100.00;59599.19;10374704;28;19928;-68
2022/05/23 18:32:30;;;;;;;;;;;;;;;-145.66;100.00;59599.19;10375098;28;20250;-68
2022/05/23 18:37:33;;;;;;;;;;;;;;;-145.66;100.00;59599.19;10372889;28;20380;-69
2022/05/23 18:42:35;;;;;;;;;;;;;;;-145.66;100.00;59599.19;10365679;28;19925;-69
2022/05/23 18:47:37;;;;;;;;;;;;;;;-145.66;100.00;59599.19;10367580;28;20003;-69
2022/05/23 18:52:40;;;;;;;;;;;;;;;-145.66;100.00;59599.19;10367393;28;19925;-69
2022/05/23 18:57:42;;;;;;;;;;;;;;;-145.66;100.00;59599.19;10366364;28;19950;-67
2022/05/23 19:02:44;;;;;;;;;;;;;;;-145.66;100.00;59599.19;10374450;28;19932;-67
2022/05/23 19:07:48;;;;;;;;;;;;;;;-145.66;100.00;59599.19;10376331;28;20008;-67
2022/05/23 19:12:51;;;;;;;;;;;;;;;-145.66;100.00;59599.19;10374056;28;20475;-67
2022/05/23 19:17:54;;;;;;;;;;;;;;;-145.66;100.00;59599.19;10375183;28;19926;-68
2022/05/23 19:22:57;;;;;;;;;;;;;;;-145.66;100.00;59599.19;10372332;28;19925;-69
2022/05/23 19:27:59;;;;;;;;;;;;;;;-145.66;100.00;59599.19;10367172;28;19931;-69
2022/05/23 19:33:01;;;;;;;;;;;;;;;-145.66;100.00;59599.19;10374890;28;20756;-69
2022/05/23 19:38:04;;;;;;;;;;;;;;;-145.66;100.00;59599.19;10374383;28;20280;-69
2022/05/23 19:43:06;;;;;;;;;;;;;;;-145.66;100.00;59599.19;10374295;28;20386;-69
2022/05/23 19:48:08;;;;;;;;;;;;;;;-145.66;100.00;59599.19;10374250;28;19925;-69
2022/05/23 19:53:10;;;;;;;;;;;;;;;-145.66;100.00;59599.19;10373802;28;20369;-68
2022/05/23 19:58:12;;;;;;;;;;;;;;;-145.66;100.00;59599.19;10373954;28;19929;-68
2022/05/23 20:08:36;;;;;;;;;;;;;;;-145.66;100.00;59599.19;10374209;28;19972;-68
2022/05/23 20:13:38;;;;;;;;;;;;;;;-145.66;100.00;59599.19;10371750;28;19960;-68
2022/05/23 20:18:40;;;;;;;;;;;;;;;-145.66;100.00;59599.19;10369073;28;20289;-68
2022/05/23 20:23:42;;;;;;;;;;;;;;;-145.66;100.00;59599.19;10372803;28;19921;-68
2022/05/23 20:29:02;;;;;;;;;;;;;;;-145.66;100.00;59599.19;10372928;28;20300;-68
2022/05/23 20:34:05;;;;;;;;;;;;;;;-145.66;100.00;59599.19;10360932;28;20393;-68
2022/05/23 20:39:07;;;;;;;;;;;;;;;-145.66;100.00;59599.19;10368823;28;20395;-68
2022/05/23 20:44:10;;;;;;;;;;;;;;;-145.66;100.00;59599.19;10372561;28;19926;-68
2022/05/23 20:49:12;;;;;;;;;;;;;;;-145.66;100.00;59599.19;10372423;28;19925;-68
2022/05/23 20:54:18;;;;;;;;;;;;;;;-145.66;100.00;59599.19;10371512;28;20376;-68
2022/05/23 20:59:21;;;;;;;;;;;;;;;-145.66;100.00;59599.19;10371664;28;19936;-68
2022/05/23 21:04:26;;;;;;;;;;;;;;;-145.66;100.00;59599.19;10373204;28;19928;-68
2022/05/23 21:09:28;;;;;;;;;;;;;;;-145.66;100.00;59599.19;10377980;28;20428;-68
2022/05/23 21:14:31;;;;;;;;;;;;;;;-145.66;100.00;59599.19;10353581;23;19921;-69
2022/05/23 21:19:38;;;;;;;;;;;;;;;-145.66;100.00;59599.19;10336018;28;20368;-69
2022/05/23 21:24:40;;;;;;;;;;;;;;;-145.66;100.00;59599.19;10336166;28;19922;-69
2022/05/23 21:29:43;;;;;;;;;;;;;;;-145.66;100.00;59599.19;10337346;28;19926;-69
2022/05/23 21:34:45;;;;;;;;;;;;;;;-145.66;100.00;59599.19;10337110;28;19922;-70
2022/05/23 21:46:28;;;;;;;;;;;;;;;-145.66;100.00;59599.19;10336390;28;19922;-69
2022/05/23 21:50:31;;;;;;;;;;;;;;;-145.66;100.00;59599.19;10335966;28;20349;-69
2022/05/23 21:55:33;;;;;;;;;;;;;;;-145.66;100.00;59599.19;10336361;28;19932;-69
2022/05/23 22:01:48;;;;;;;;;;;;;;;-145.66;100.00;59599.19;10335463;28;20356;-69
2022/05/23 22:06:18;;;;;;;;;;;;;;;-145.66;100.00;59599.19;10335408;28;19921;-69
2022/05/23 22:11:21;;;;;;;;;;;;;;;-145.66;100.00;59599.19;10335602;28;19922;-69
2022/05/23 22:16:23;;;;;;;;;;;;;;;-145.66;100.00;59599.19;10335042;28;19932;-69
2022/05/23 22:21:25;;;;;;;;;;;;;;;-145.66;100.00;59599.19;10334262;28;19921;-69
2022/05/23 22:26:28;;;;;;;;;;;;;;;-145.66;100.00;59599.19;10334668;28;19922;-69
2022/05/23 22:31:30;;;;;;;;;;;;;;;-145.66;100.00;59599.19;10333409;28;20285;-70
2022/05/23 22:36:32;;;;;;;;;;;;;;;-145.66;100.00;59599.19;10333974;28;20304;-69
2022/05/23 22:41:34;;;;;;;;;;;;;;;-145.66;100.00;59599.19;10334867;28;19929;-69
2022/05/23 22:46:37;;;;;;;;;;;;;;;-145.66;100.00;59599.19;10334769;28;19922;-69
2022/05/23 22:51:39;;;;;;;;;;;;;;;-145.66;100.00;59599.19;10334034;28;20284;-69
2022/05/23 22:56:41;;;;;;;;;;;;;;;-145.66;100.00;59599.19;10332816;28;19922;-69
2022/05/23 23:01:43;;;;;;;;;;;;;;;-145.66;100.00;59599.19;10333814;28;19948;-69
2022/05/23 23:06:46;;;;;;;;;;;;;;;-145.66;100.00;59599.19;10334057;28;20280;-69
2022/05/23 23:11:48;;;;;;;;;;;;;;;-145.66;100.00;59599.19;10333559;28;20272;-70
2022/05/23 23:16:51;;;;;;;;;;;;;;;-145.66;100.00;59599.19;10333652;28;19922;-70
2022/05/23 23:21:54;;;;;;;;;;;;;;;-145.66;100.00;59599.19;10334015;28;19922;-71
2022/05/23 23:26:56;;;;;;;;;;;;;;;-145.66;100.00;59599.19;10333943;28;19922;-67
2022/05/23 23:31:58;;;;;;;;;;;;;;;-145.66;100.00;59599.19;10332842;28;19921;-70
2022/05/23 23:42:21;;;;;;;;;;;;;;;-145.66;100.00;59599.19;10332152;28;20378;-70
2022/05/23 23:47:24;;;;;;;;;;;;;;;-145.66;100.00;59599.19;10335515;28;19930;-71
2022/05/23 23:52:26;;;;;;;;;;;;;;;-145.66;100.00;59599.19;10340702;28;19929;-71
2022/05/23 23:57:28;;;;;;;;;;;;;;;-145.66;100.00;59599.19;10340974;28;19929;-71
